Řízení letového provozu České republiky
OPMET data - Ceska Republika Aktualizace: 27.02.2017 11:06:08  UTC
SIGMET / AIRMET - NIL
Warning / Vystraha - NIL
 
METAR / SPECI
METAR LKCV 271100Z 14012KT CAVOK 12/M01 Q1010 NOSIG=
METAR LKKB 271100Z 20007KT 120V230 CAVOK 12/M02 Q1009 NOSIG =
METAR LKKU 271100Z 15008KT CAVOK 12/M04 Q1013 RMK REG QNH 1004=
METAR LKKV 271100Z VRB06KT 9999 FEW033 10/02 Q1007 RMK REG QNH 1004=
METAR LKLN 271100Z AUTO VRB01KT 9999 BKN200 11/00 Q1009=
METAR LKMT 271100Z 24015KT CAVOK 12/M01 Q1012 NOSIG RMK REG QNH 1004=
METAR LKNA 271100Z 15011KT CAVOK 06/M02 Q1011 NOSIG=
METAR LKPD 271100Z 09007KT CAVOK 12/M01 Q1010 NOSIG =
METAR LKPR 271100Z 14005KT CAVOK 11/M01 Q1009 NOSIG RMK REG QNH 1004=
METAR LKTB 271100Z 14009KT CAVOK 09/01 Q1012 NOSIG RMK REG QNH 1004=
METAR LKVO 271100Z 12007KT 090V150 CAVOK 11/01 Q1009=
TAF
TAF LKCV 270500Z 2706/2806 13008KT CAVOK      TEMPO 2710/2718 15014KT      BECMG 2723/2801 14010KT SCT035=
TAF LKKB 270500Z 2706/2806 17008KT CAVOK=
TAF LKKU NIL
TAF LKKV 270500Z 2706/2812 19004KT 9999 BKN027      BECMG 2708/2710 22006KT CAVOK      BECMG 2800/2803 24010KT 9999 BKN030      TEMPO 2803/2812 6000 -RA BKN017=
TAF LKLN NIL
TAF LKMT 270500Z 2706/2812 23008KT CAVOK      BECMG 2708/2710 21014KT      TEMPO 2711/2812 21018G32KT=
TAF LKNA 270500Z 2706/2806 12004KT CAVOK      BECMG 2708/2710 15012KT      TEMPO 2714/2718 14014G24KT      BECMG 2718/2720 13006KT 5000 BR SCT015=
TAF LKPD 270500Z 2706/2806 VRB02KT CAVOK      BECMG 2712/2714 15006KT      PROB40 TEMPO 2712/2716 14012KT=
TAF LKPR 270500Z 2706/2812 17008KT CAVOK      BECMG 2708/2710 20012KT      BECMG 2804/2807 23014KT 9999 BKN035      TEMPO 2807/2812 8000 -RA BKN025=
TAF LKTB 270500Z 2706/2812 VRB02KT CAVOK      BECMG 2708/2710 12010KT      TEMPO 2712/2717 15014G24KT=
TAF LKVO NIL